Terminal Aerodrome Forecast
Issued by NWS Boise, ID

Home | Current Version | Previous Version | Text Only | Print | Product List | Glossary On
Versions: 1 2 3 4 5 6 7 8 9 10 11 12 13 14 15 16 17 18 19 20 21 22 23 24 25 26 27 28 29 30 31 32 33 34 35 36 37 38 39 40 41 42
000
FTUS45 KBOI 181748
TAFBOI
TAF
KBOI 181748Z 1818/1918 14010KT 2SM -SN BR SCT025 OVC040
     FM182100 14015KT 1SM -SN BR OVC015
     FM190700 14009KT 4SM -RASN BR OVC030
      TEMPO 1909/1913 -RA BR OVC020
     FM191500 13010KT 2SM -SN BR SCT020 OVC040=

USA.gov is the U.S. government's official web portal to all federal, state and local government web resources and services.